North Loup, Nebraska
Current Conditions -  °F | °C
As of 5:15 PM on Friday 19 Dec 2014 (Local Time) from KBVN Reporting Station
Haze Haze  
Wind Chill: 26°   Ceiling: 500
Heat Index: 31°   Visibility: 4mi
Dew Point: 28°   Wind: 5mph
Humidity: 90%   Direction: 200°SSW
Pressure: 30.07"   Gusts: NA
Location:  41.5°N, 98.77°W
Report Text: KBVN 192315Z AUTO 20004KT 4SM BR OVC005 00/M02 A3007 RMK AO2 T10051020
Loading
Personal Weather Stations






























Interactive Weather Map New forecast layout! Learn more

10-Day Weather Forecast

Advertisements
Track Severe Weather on mobile